sensor_id;sensor_type;location;lat;lon;timestamp;temperature;humidity
62809;DHT22;48848;39.002;-94.584;2022-12-29T00:01:16;19.80;36.90
62809;DHT22;48848;39.002;-94.584;2022-12-29T00:03:41;19.70;37.00
62809;DHT22;48848;39.002;-94.584;2022-12-29T00:06:07;19.70;37.30
62809;DHT22;48848;39.002;-94.584;2022-12-29T00:08:33;19.70;37.40
62809;DHT22;48848;39.002;-94.584;2022-12-29T00:11:12;19.70;37.50
62809;DHT22;48848;39.002;-94.584;2022-12-29T00:13:38;19.60;37.40
62809;DHT22;48848;39.002;-94.584;2022-12-29T00:16:22;19.60;37.50
62809;DHT22;48848;39.002;-94.584;2022-12-29T00:18:49;19.60;37.50
62809;DHT22;48848;39.002;-94.584;2022-12-29T00:21:16;19.60;37.50
62809;DHT22;48848;39.002;-94.584;2022-12-29T00:24:00;19.60;37.60
62809;DHT22;48848;39.002;-94.584;2022-12-29T00:26:45;19.60;37.60
62809;DHT22;48848;39.002;-94.584;2022-12-29T00:29:29;19.60;37.60
62809;DHT22;48848;39.002;-94.584;2022-12-29T00:32:13;19.60;37.90
62809;DHT22;48848;39.002;-94.584;2022-12-29T00:34:57;19.60;38.20
62809;DHT22;48848;39.002;-94.584;2022-12-29T00:37:39;19.70;38.60
62809;DHT22;48848;39.002;-94.584;2022-12-29T00:40:25;19.60;38.00
62809;DHT22;48848;39.002;-94.584;2022-12-29T00:43:09;19.60;37.90
62809;DHT22;48848;39.002;-94.584;2022-12-29T00:45:53;19.60;37.90
62809;DHT22;48848;39.002;-94.584;2022-12-29T00:48:19;19.60;38.10
62809;DHT22;48848;39.002;-94.584;2022-12-29T00:51:05;19.60;38.30
62809;DHT22;48848;39.002;-94.584;2022-12-29T00:53:31;19.60;38.20
62809;DHT22;48848;39.002;-94.584;2022-12-29T00:55:57;19.60;38.30
62809;DHT22;48848;39.002;-94.584;2022-12-29T00:58:23;19.60;38.50
62809;DHT22;48848;39.002;-94.584;2022-12-29T01:00:49;19.50;38.40
62809;DHT22;48848;39.002;-94.584;2022-12-29T01:03:15;19.50;38.40
62809;DHT22;48848;39.002;-94.584;2022-12-29T01:05:41;19.50;38.50
62809;DHT22;48848;39.002;-94.584;2022-12-29T01:08:07;19.50;38.40
62809;DHT22;48848;39.002;-94.584;2022-12-29T01:10:32;19.50;40.30
62809;DHT22;48848;39.002;-94.584;2022-12-29T01:12:58;19.50;38.80
62809;DHT22;48848;39.002;-94.584;2022-12-29T01:15:24;19.50;38.80
62809;DHT22;48848;39.002;-94.584;2022-12-29T01:17:50;19.40;38.90
62809;DHT22;48848;39.002;-94.584;2022-12-29T01:20:16;19.40;39.20
62809;DHT22;48848;39.002;-94.584;2022-12-29T01:22:42;19.40;39.20
62809;DHT22;48848;39.002;-94.584;2022-12-29T01:25:09;19.40;40.20
62809;DHT22;48848;39.002;-94.584;2022-12-29T01:27:35;19.30;39.10
62809;DHT22;48848;39.002;-94.584;2022-12-29T01:30:00;19.30;39.10
62809;DHT22;48848;39.002;-94.584;2022-12-29T01:32:26;19.40;39.20
62809;DHT22;48848;39.002;-94.584;2022-12-29T01:34:52;19.50;39.20
62809;DHT22;48848;39.002;-94.584;2022-12-29T01:37:18;19.40;38.90
62809;DHT22;48848;39.002;-94.584;2022-12-29T01:39:44;19.40;38.90
62809;DHT22;48848;39.002;-94.584;2022-12-29T01:42:16;19.40;39.00
62809;DHT22;48848;39.002;-94.584;2022-12-29T01:49:46;19.30;39.00
62809;DHT22;48848;39.002;-94.584;2022-12-29T01:52:12;19.30;38.90
62809;DHT22;48848;39.002;-94.584;2022-12-29T01:54:42;19.30;38.80
62809;DHT22;48848;39.002;-94.584;2022-12-29T01:57:13;19.30;39.80
62809;DHT22;48848;39.002;-94.584;2022-12-29T01:59:43;19.30;38.70
62809;DHT22;48848;39.002;-94.584;2022-12-29T02:02:11;19.30;39.70
62809;DHT22;48848;39.002;-94.584;2022-12-29T02:04:39;19.20;38.80
62809;DHT22;48848;39.002;-94.584;2022-12-29T02:07:07;19.20;38.70
62809;DHT22;48848;39.002;-94.584;2022-12-29T02:09:35;19.20;38.60
62809;DHT22;48848;39.002;-94.584;2022-12-29T02:12:01;19.30;38.60
62809;DHT22;48848;39.002;-94.584;2022-12-29T02:14:27;19.20;38.70
62809;DHT22;48848;39.002;-94.584;2022-12-29T02:35:17;19.40;41.10
62809;DHT22;48848;39.002;-94.584;2022-12-29T02:40:22;19.40;41.30
62809;DHT22;48848;39.002;-94.584;2022-12-29T02:42:59;19.40;41.70
62809;DHT22;48848;39.002;-94.584;2022-12-29T02:48:09;19.50;41.70
62809;DHT22;48848;39.002;-94.584;2022-12-29T02:50:39;19.40;41.40
62809;DHT22;48848;39.002;-94.584;2022-12-29T02:53:06;19.40;41.40
62809;DHT22;48848;39.002;-94.584;2022-12-29T02:55:33;19.40;41.40
62809;DHT22;48848;39.002;-94.584;2022-12-29T02:58:41;19.40;41.40
62809;DHT22;48848;39.002;-94.584;2022-12-29T03:00:56;19.40;41.40
62809;DHT22;48848;39.002;-94.584;2022-12-29T03:03:43;19.40;41.50
62809;DHT22;48848;39.002;-94.584;2022-12-29T03:06:15;19.40;41.60
62809;DHT22;48848;39.002;-94.584;2022-12-29T03:11:38;19.40;41.30
62809;DHT22;48848;39.002;-94.584;2022-12-29T03:14:29;19.40;41.30
62809;DHT22;48848;39.002;-94.584;2022-12-29T03:17:23;19.50;41.20
62809;DHT22;48848;39.002;-94.584;2022-12-29T03:19:50;19.70;41.30
62809;DHT22;48848;39.002;-94.584;2022-12-29T03:22:22;20.10;41.40
62809;DHT22;48848;39.002;-94.584;2022-12-29T03:24:58;20.30;41.20
62809;DHT22;48848;39.002;-94.584;2022-12-29T03:27:29;20.20;42.20
62809;DHT22;48848;39.002;-94.584;2022-12-29T03:29:56;20.10;42.10
62809;DHT22;48848;39.002;-94.584;2022-12-29T03:32:26;20.00;42.10
62809;DHT22;48848;39.002;-94.584;2022-12-29T03:34:52;20.00;42.30
62809;DHT22;48848;39.002;-94.584;2022-12-29T03:37:20;19.90;42.30
62809;DHT22;48848;39.002;-94.584;2022-12-29T03:39:47;20.00;42.50
62809;DHT22;48848;39.002;-94.584;2022-12-29T03:42:15;20.00;42.60
62809;DHT22;48848;39.002;-94.584;2022-12-29T03:44:43;20.00;44.60
62809;DHT22;48848;39.002;-94.584;2022-12-29T03:47:12;20.00;42.70
62809;DHT22;48848;39.002;-94.584;2022-12-29T03:49:38;20.00;42.70
62809;DHT22;48848;39.002;-94.584;2022-12-29T03:52:05;20.10;42.70
62809;DHT22;48848;39.002;-94.584;2022-12-29T03:54:31;20.10;42.70
62809;DHT22;48848;39.002;-94.584;2022-12-29T03:56:57;20.00;42.80
62809;DHT22;48848;39.002;-94.584;2022-12-29T03:59:23;20.00;42.70
62809;DHT22;48848;39.002;-94.584;2022-12-29T04:01:49;20.00;42.80
62809;DHT22;48848;39.002;-94.584;2022-12-29T04:04:14;20.00;42.70
62809;DHT22;48848;39.002;-94.584;2022-12-29T04:06:40;20.00;42.60
62809;DHT22;48848;39.002;-94.584;2022-12-29T04:09:07;20.10;42.70
62809;DHT22;48848;39.002;-94.584;2022-12-29T04:11:33;20.00;42.60
62809;DHT22;48848;39.002;-94.584;2022-12-29T04:13:59;20.00;42.70
62809;DHT22;48848;39.002;-94.584;2022-12-29T04:16:24;20.00;42.80
62809;DHT22;48848;39.002;-94.584;2022-12-29T04:18:50;20.10;42.80
62809;DHT22;48848;39.002;-94.584;2022-12-29T04:21:16;20.00;43.00
62809;DHT22;48848;39.002;-94.584;2022-12-29T04:23:42;20.00;42.80
62809;DHT22;48848;39.002;-94.584;2022-12-29T04:26:08;20.00;42.70
62809;DHT22;48848;39.002;-94.584;2022-12-29T04:28:35;20.00;42.80
62809;DHT22;48848;39.002;-94.584;2022-12-29T04:31:01;19.90;42.70
62809;DHT22;48848;39.002;-94.584;2022-12-29T04:33:27;19.90;42.70
62809;DHT22;48848;39.002;-94.584;2022-12-29T04:35:54;19.80;42.60
62809;DHT22;48848;39.002;-94.584;2022-12-29T04:38:20;19.80;42.50
62809;DHT22;48848;39.002;-94.584;2022-12-29T04:40:46;19.80;42.30
62809;DHT22;48848;39.002;-94.584;2022-12-29T04:43:12;19.70;42.20
62809;DHT22;48848;39.002;-94.584;2022-12-29T04:45:39;19.70;42.30
62809;DHT22;48848;39.002;-94.584;2022-12-29T04:48:05;19.60;42.30
62809;DHT22;48848;39.002;-94.584;2022-12-29T04:50:31;19.60;42.10
62809;DHT22;48848;39.002;-94.584;2022-12-29T04:52:56;19.60;42.30
62809;DHT22;48848;39.002;-94.584;2022-12-29T04:55:22;19.50;42.10
62809;DHT22;48848;39.002;-94.584;2022-12-29T04:57:48;19.50;42.30
62809;DHT22;48848;39.002;-94.584;2022-12-29T05:00:14;19.40;42.20
62809;DHT22;48848;39.002;-94.584;2022-12-29T05:02:40;19.40;42.20
62809;DHT22;48848;39.002;-94.584;2022-12-29T05:05:06;19.30;42.40
62809;DHT22;48848;39.002;-94.584;2022-12-29T05:07:32;19.30;42.30
62809;DHT22;48848;39.002;-94.584;2022-12-29T05:09:59;19.20;42.20
62809;DHT22;48848;39.002;-94.584;2022-12-29T05:12:24;19.20;42.20
62809;DHT22;48848;39.002;-94.584;2022-12-29T05:14:50;19.10;42.20
62809;DHT22;48848;39.002;-94.584;2022-12-29T05:17:16;19.10;42.10
62809;DHT22;48848;39.002;-94.584;2022-12-29T05:19:42;19.10;42.10
62809;DHT22;48848;39.002;-94.584;2022-12-29T05:22:08;19.00;42.00
62809;DHT22;48848;39.002;-94.584;2022-12-29T05:24:34;19.00;42.10
62809;DHT22;48848;39.002;-94.584;2022-12-29T05:27:00;19.00;42.10
62809;DHT22;48848;39.002;-94.584;2022-12-29T05:29:26;18.90;42.10
62809;DHT22;48848;39.002;-94.584;2022-12-29T05:31:51;18.90;42.20
62809;DHT22;48848;39.002;-94.584;2022-12-29T05:34:17;18.80;42.10
62809;DHT22;48848;39.002;-94.584;2022-12-29T05:36:43;18.80;42.10
62809;DHT22;48848;39.002;-94.584;2022-12-29T05:39:09;18.80;42.10
62809;DHT22;48848;39.002;-94.584;2022-12-29T05:41:35;18.80;42.10
62809;DHT22;48848;39.002;-94.584;2022-12-29T05:44:01;18.70;42.10
62809;DHT22;48848;39.002;-94.584;2022-12-29T05:46:27;18.70;42.10
62809;DHT22;48848;39.002;-94.584;2022-12-29T05:48:53;18.70;42.00
62809;DHT22;48848;39.002;-94.584;2022-12-29T05:51:18;18.70;42.10
62809;DHT22;48848;39.002;-94.584;2022-12-29T05:53:44;18.70;42.10
62809;DHT22;48848;39.002;-94.584;2022-12-29T05:56:10;18.70;42.10
62809;DHT22;48848;39.002;-94.584;2022-12-29T05:58:36;18.60;42.00
62809;DHT22;48848;39.002;-94.584;2022-12-29T06:01:02;18.60;42.10
62809;DHT22;48848;39.002;-94.584;2022-12-29T06:03:27;18.60;42.10
62809;DHT22;48848;39.002;-94.584;2022-12-29T06:05:53;18.60;42.10
62809;DHT22;48848;39.002;-94.584;2022-12-29T06:08:19;18.60;42.10
62809;DHT22;48848;39.002;-94.584;2022-12-29T06:10:45;18.50;42.20
62809;DHT22;48848;39.002;-94.584;2022-12-29T06:13:11;18.50;42.10
62809;DHT22;48848;39.002;-94.584;2022-12-29T06:15:37;18.50;42.00
62809;DHT22;48848;39.002;-94.584;2022-12-29T06:18:03;18.50;42.00
62809;DHT22;48848;39.002;-94.584;2022-12-29T06:20:29;18.50;42.00
62809;DHT22;48848;39.002;-94.584;2022-12-29T06:22:55;18.50;42.10
62809;DHT22;48848;39.002;-94.584;2022-12-29T06:25:21;18.50;42.10
62809;DHT22;48848;39.002;-94.584;2022-12-29T06:27:46;18.50;42.30
62809;DHT22;48848;39.002;-94.584;2022-12-29T06:30:12;18.50;42.30
62809;DHT22;48848;39.002;-94.584;2022-12-29T06:32:38;18.40;42.40
62809;DHT22;48848;39.002;-94.584;2022-12-29T06:35:04;18.40;42.40
62809;DHT22;48848;39.002;-94.584;2022-12-29T06:37:31;18.40;42.40
62809;DHT22;48848;39.002;-94.584;2022-12-29T06:39:57;18.40;42.40
62809;DHT22;48848;39.002;-94.584;2022-12-29T06:42:23;18.40;42.30
62809;DHT22;48848;39.002;-94.584;2022-12-29T06:44:49;18.30;42.40
62809;DHT22;48848;39.002;-94.584;2022-12-29T06:47:15;18.30;42.40
62809;DHT22;48848;39.002;-94.584;2022-12-29T06:49:41;18.30;42.30
62809;DHT22;48848;39.002;-94.584;2022-12-29T06:52:07;18.30;42.40
62809;DHT22;48848;39.002;-94.584;2022-12-29T06:54:33;18.30;42.70
62809;DHT22;48848;39.002;-94.584;2022-12-29T06:56:59;18.30;42.60
62809;DHT22;48848;39.002;-94.584;2022-12-29T06:59:24;18.30;42.60
62809;DHT22;48848;39.002;-94.584;2022-12-29T07:01:51;18.30;42.60
62809;DHT22;48848;39.002;-94.584;2022-12-29T07:04:17;18.30;42.80
62809;DHT22;48848;39.002;-94.584;2022-12-29T07:06:43;18.30;43.00
62809;DHT22;48848;39.002;-94.584;2022-12-29T07:09:08;18.30;43.80
62809;DHT22;48848;39.002;-94.584;2022-12-29T07:11:34;18.30;42.70
62809;DHT22;48848;39.002;-94.584;2022-12-29T07:14:01;18.20;42.60
62809;DHT22;48848;39.002;-94.584;2022-12-29T07:16:27;18.20;42.80
62809;DHT22;48848;39.002;-94.584;2022-12-29T07:18:54;18.20;42.80
62809;DHT22;48848;39.002;-94.584;2022-12-29T07:21:20;18.20;43.00
62809;DHT22;48848;39.002;-94.584;2022-12-29T07:23:46;18.20;43.00
62809;DHT22;48848;39.002;-94.584;2022-12-29T07:26:13;18.20;43.10
62809;DHT22;48848;39.002;-94.584;2022-12-29T07:28:39;18.20;43.20
62809;DHT22;48848;39.002;-94.584;2022-12-29T07:31:05;18.20;43.40
62809;DHT22;48848;39.002;-94.584;2022-12-29T07:33:31;18.20;43.50
62809;DHT22;48848;39.002;-94.584;2022-12-29T07:35:58;18.20;43.40
62809;DHT22;48848;39.002;-94.584;2022-12-29T07:38:24;18.20;43.50
62809;DHT22;48848;39.002;-94.584;2022-12-29T07:40:50;18.20;43.30
62809;DHT22;48848;39.002;-94.584;2022-12-29T07:43:15;18.10;43.20
62809;DHT22;48848;39.002;-94.584;2022-12-29T07:45:41;18.20;43.40
62809;DHT22;48848;39.002;-94.584;2022-12-29T07:48:07;18.20;43.30
62809;DHT22;48848;39.002;-94.584;2022-12-29T07:50:34;18.10;43.50
62809;DHT22;48848;39.002;-94.584;2022-12-29T07:53:00;18.20;43.70
62809;DHT22;48848;39.002;-94.584;2022-12-29T07:55:26;18.10;43.60
62809;DHT22;48848;39.002;-94.584;2022-12-29T07:57:55;18.10;43.60
62809;DHT22;48848;39.002;-94.584;2022-12-29T08:00:21;18.10;43.40
62809;DHT22;48848;39.002;-94.584;2022-12-29T08:02:47;18.10;43.60
62809;DHT22;48848;39.002;-94.584;2022-12-29T08:05:13;18.10;43.70
62809;DHT22;48848;39.002;-94.584;2022-12-29T08:07:39;18.10;44.00
62809;DHT22;48848;39.002;-94.584;2022-12-29T08:10:05;18.10;43.90
62809;DHT22;48848;39.002;-94.584;2022-12-29T08:12:31;18.10;43.90
62809;DHT22;48848;39.002;-94.584;2022-12-29T08:14:57;18.10;43.80
62809;DHT22;48848;39.002;-94.584;2022-12-29T08:17:23;18.00;43.70
62809;DHT22;48848;39.002;-94.584;2022-12-29T08:19:49;18.00;43.60
62809;DHT22;48848;39.002;-94.584;2022-12-29T08:22:15;18.00;43.40
62809;DHT22;48848;39.002;-94.584;2022-12-29T08:24:41;18.00;43.30
62809;DHT22;48848;39.002;-94.584;2022-12-29T08:27:07;18.00;43.50
62809;DHT22;48848;39.002;-94.584;2022-12-29T08:29:33;18.00;43.70
62809;DHT22;48848;39.002;-94.584;2022-12-29T08:31:58;18.00;44.00
62809;DHT22;48848;39.002;-94.584;2022-12-29T08:34:24;18.00;43.90
62809;DHT22;48848;39.002;-94.584;2022-12-29T08:36:50;18.00;44.10
62809;DHT22;48848;39.002;-94.584;2022-12-29T08:39:16;18.00;43.90
62809;DHT22;48848;39.002;-94.584;2022-12-29T08:41:42;18.00;43.70
62809;DHT22;48848;39.002;-94.584;2022-12-29T08:44:08;18.00;43.60
62809;DHT22;48848;39.002;-94.584;2022-12-29T08:46:33;18.00;43.60
62809;DHT22;48848;39.002;-94.584;2022-12-29T08:48:59;17.90;43.50
62809;DHT22;48848;39.002;-94.584;2022-12-29T08:51:25;17.90;43.90
62809;DHT22;48848;39.002;-94.584;2022-12-29T08:53:51;18.00;43.90
62809;DHT22;48848;39.002;-94.584;2022-12-29T08:56:17;17.90;43.70
62809;DHT22;48848;39.002;-94.584;2022-12-29T08:58:43;17.90;43.80
62809;DHT22;48848;39.002;-94.584;2022-12-29T09:01:09;17.90;43.80
62809;DHT22;48848;39.002;-94.584;2022-12-29T09:03:35;17.90;43.80
62809;DHT22;48848;39.002;-94.584;2022-12-29T09:06:01;18.00;43.70
62809;DHT22;48848;39.002;-94.584;2022-12-29T09:08:27;17.90;43.70
62809;DHT22;48848;39.002;-94.584;2022-12-29T09:10:52;17.90;43.80
62809;DHT22;48848;39.002;-94.584;2022-12-29T09:13:18;17.90;44.60
62809;DHT22;48848;39.002;-94.584;2022-12-29T09:15:44;17.90;43.50
62809;DHT22;48848;39.002;-94.584;2022-12-29T09:18:10;17.90;43.80
62809;DHT22;48848;39.002;-94.584;2022-12-29T09:20:37;17.90;43.90
62809;DHT22;48848;39.002;-94.584;2022-12-29T09:23:03;17.90;43.90
62809;DHT22;48848;39.002;-94.584;2022-12-29T09:25:29;17.90;43.80
62809;DHT22;48848;39.002;-94.584;2022-12-29T09:27:55;17.90;43.80
62809;DHT22;48848;39.002;-94.584;2022-12-29T09:30:21;17.90;43.70
62809;DHT22;48848;39.002;-94.584;2022-12-29T09:32:48;17.80;43.50
62809;DHT22;48848;39.002;-94.584;2022-12-29T09:35:14;17.90;43.50
62809;DHT22;48848;39.002;-94.584;2022-12-29T09:37:40;17.90;43.60
62809;DHT22;48848;39.002;-94.584;2022-12-29T09:40:07;17.80;43.70
62809;DHT22;48848;39.002;-94.584;2022-12-29T09:47:31;17.80;43.90
62809;DHT22;48848;39.002;-94.584;2022-12-29T09:50:30;17.80;44.00
62809;DHT22;48848;39.002;-94.584;2022-12-29T09:53:12;17.80;44.10
62809;DHT22;48848;39.002;-94.584;2022-12-29T09:55:39;17.80;43.90
62809;DHT22;48848;39.002;-94.584;2022-12-29T10:06:10;17.80;43.90
62809;DHT22;48848;39.002;-94.584;2022-12-29T10:11:52;17.70;44.20
62809;DHT22;48848;39.002;-94.584;2022-12-29T10:13:55;17.70;44.20
62809;DHT22;48848;39.002;-94.584;2022-12-29T10:23:52;17.70;44.00
62809;DHT22;48848;39.002;-94.584;2022-12-29T10:26:20;17.70;44.00
62809;DHT22;48848;39.002;-94.584;2022-12-29T10:28:56;17.70;43.90
62809;DHT22;48848;39.002;-94.584;2022-12-29T10:31:24;17.70;44.20
62809;DHT22;48848;39.002;-94.584;2022-12-29T10:33:56;17.70;44.50
62809;DHT22;48848;39.002;-94.584;2022-12-29T10:39:02;17.70;44.50
62809;DHT22;48848;39.002;-94.584;2022-12-29T10:41:38;17.70;44.40
62809;DHT22;48848;39.002;-94.584;2022-12-29T10:44:07;17.60;44.20
62809;DHT22;48848;39.002;-94.584;2022-12-29T10:46:35;17.60;44.00
62809;DHT22;48848;39.002;-94.584;2022-12-29T10:49:02;17.60;43.90
62809;DHT22;48848;39.002;-94.584;2022-12-29T10:51:29;17.60;44.10
62809;DHT22;48848;39.002;-94.584;2022-12-29T10:53:59;17.60;44.40
62809;DHT22;48848;39.002;-94.584;2022-12-29T10:58:54;17.60;44.50
62809;DHT22;48848;39.002;-94.584;2022-12-29T11:01:21;17.60;44.50
62809;DHT22;48848;39.002;-94.584;2022-12-29T11:03:50;17.60;44.50
62809;DHT22;48848;39.002;-94.584;2022-12-29T11:06:25;17.60;44.50
62809;DHT22;48848;39.002;-94.584;2022-12-29T11:11:22;17.60;44.20
62809;DHT22;48848;39.002;-94.584;2022-12-29T11:13:49;17.60;44.10
62809;DHT22;48848;39.002;-94.584;2022-12-29T11:16:25;17.60;44.10
62809;DHT22;48848;39.002;-94.584;2022-12-29T11:18:52;17.60;44.40
62809;DHT22;48848;39.002;-94.584;2022-12-29T11:21:31;17.60;44.40
62809;DHT22;48848;39.002;-94.584;2022-12-29T11:24:18;17.60;44.50
62809;DHT22;48848;39.002;-94.584;2022-12-29T11:26:44;17.50;44.50
62809;DHT22;48848;39.002;-94.584;2022-12-29T11:29:55;17.50;44.50
62809;DHT22;48848;39.002;-94.584;2022-12-29T11:31:57;17.50;44.50
62809;DHT22;48848;39.002;-94.584;2022-12-29T11:36:52;17.50;44.30
62809;DHT22;48848;39.002;-94.584;2022-12-29T11:39:29;17.50;44.20
62809;DHT22;48848;39.002;-94.584;2022-12-29T11:41:55;17.50;44.20
62809;DHT22;48848;39.002;-94.584;2022-12-29T11:44:22;17.50;44.30
62809;DHT22;48848;39.002;-94.584;2022-12-29T11:46:49;17.50;44.40
62809;DHT22;48848;39.002;-94.584;2022-12-29T11:49:20;17.50;44.50
62809;DHT22;48848;39.002;-94.584;2022-12-29T11:51:47;17.50;44.60
62809;DHT22;48848;39.002;-94.584;2022-12-29T11:56:55;17.70;44.40
62809;DHT22;48848;39.002;-94.584;2022-12-29T12:02:00;18.10;43.50
62809;DHT22;48848;39.002;-94.584;2022-12-29T12:04:34;18.40;43.10
62809;DHT22;48848;39.002;-94.584;2022-12-29T12:09:36;18.70;42.70
62809;DHT22;48848;39.002;-94.584;2022-12-29T12:12:08;18.60;43.00
62809;DHT22;48848;39.002;-94.584;2022-12-29T12:14:42;18.50;43.10
62809;DHT22;48848;39.002;-94.584;2022-12-29T12:17:13;18.50;43.30
62809;DHT22;48848;39.002;-94.584;2022-12-29T12:19:57;18.50;43.20
62809;DHT22;48848;39.002;-94.584;2022-12-29T12:25:02;18.40;43.80
62809;DHT22;48848;39.002;-94.584;2022-12-29T12:27:36;18.40;44.00
62809;DHT22;48848;39.002;-94.584;2022-12-29T12:30:15;18.40;44.10
62809;DHT22;48848;39.002;-94.584;2022-12-29T12:35:15;18.30;44.00
62809;DHT22;48848;39.002;-94.584;2022-12-29T12:40:53;18.30;43.90
62809;DHT22;48848;39.002;-94.584;2022-12-29T12:45:58;18.50;44.10
62809;DHT22;48848;39.002;-94.584;2022-12-29T13:09:29;18.70;44.00
62809;DHT22;48848;39.002;-94.584;2022-12-29T13:12:01;18.70;44.00
62809;DHT22;48848;39.002;-94.584;2022-12-29T13:14:46;18.70;44.10
62809;DHT22;48848;39.002;-94.584;2022-12-29T13:19:50;18.70;44.20
62809;DHT22;48848;39.002;-94.584;2022-12-29T13:24:50;18.60;44.10
62809;DHT22;48848;39.002;-94.584;2022-12-29T13:27:28;18.60;44.30
62809;DHT22;48848;39.002;-94.584;2022-12-29T13:30:04;18.60;44.20
62809;DHT22;48848;39.002;-94.584;2022-12-29T13:35:09;18.60;44.40
62809;DHT22;48848;39.002;-94.584;2022-12-29T13:37:40;18.70;44.20
62809;DHT22;48848;39.002;-94.584;2022-12-29T13:40:15;19.00;43.60
62809;DHT22;48848;39.002;-94.584;2022-12-29T13:42:42;19.20;43.30
62809;DHT22;48848;39.002;-94.584;2022-12-29T13:45:15;19.40;43.00
62809;DHT22;48848;39.002;-94.584;2022-12-29T13:47:44;19.60;42.70
62809;DHT22;48848;39.002;-94.584;2022-12-29T13:50:18;19.80;42.40
62809;DHT22;48848;39.002;-94.584;2022-12-29T13:55:36;20.10;41.90
62809;DHT22;48848;39.002;-94.584;2022-12-29T14:00:32;20.30;42.30
62809;DHT22;48848;39.002;-94.584;2022-12-29T14:08:32;20.00;43.00
62809;DHT22;48848;39.002;-94.584;2022-12-29T14:11:00;19.90;43.10
62809;DHT22;48848;39.002;-94.584;2022-12-29T14:13:30;19.90;43.20
62809;DHT22;48848;39.002;-94.584;2022-12-29T14:15:57;19.80;43.30
62809;DHT22;48848;39.002;-94.584;2022-12-29T14:18:24;20.00;43.30
62809;DHT22;48848;39.002;-94.584;2022-12-29T14:20:55;20.20;42.80
62809;DHT22;48848;39.002;-94.584;2022-12-29T14:28:22;20.40;42.80
62809;DHT22;48848;39.002;-94.584;2022-12-29T14:30:50;20.30;43.10
62809;DHT22;48848;39.002;-94.584;2022-12-29T14:33:17;20.20;43.10
62809;DHT22;48848;39.002;-94.584;2022-12-29T14:35:44;20.20;43.10
62809;DHT22;48848;39.002;-94.584;2022-12-29T14:38:44;20.10;43.20
62809;DHT22;48848;39.002;-94.584;2022-12-29T14:44:02;20.10;43.60
62809;DHT22;48848;39.002;-94.584;2022-12-29T14:49:32;20.10;45.00
62809;DHT22;48848;39.002;-94.584;2022-12-29T14:57:50;20.60;42.80
62809;DHT22;48848;39.002;-94.584;2022-12-29T15:00:24;20.50;43.00
62809;DHT22;48848;39.002;-94.584;2022-12-29T15:03:00;20.50;43.20
62809;DHT22;48848;39.002;-94.584;2022-12-29T15:05:30;20.40;43.80
62809;DHT22;48848;39.002;-94.584;2022-12-29T15:07:57;20.40;43.80
62809;DHT22;48848;39.002;-94.584;2022-12-29T15:10:24;20.40;43.90
62809;DHT22;48848;39.002;-94.584;2022-12-29T15:12:54;20.30;44.00
62809;DHT22;48848;39.002;-94.584;2022-12-29T15:15:24;20.30;44.20
62809;DHT22;48848;39.002;-94.584;2022-12-29T15:17:51;20.30;44.20
62809;DHT22;48848;39.002;-94.584;2022-12-29T15:22:46;20.20;44.30
62809;DHT22;48848;39.002;-94.584;2022-12-29T15:25:17;20.20;44.50
62809;DHT22;48848;39.002;-94.584;2022-12-29T15:27:48;20.20;44.60
62809;DHT22;48848;39.002;-94.584;2022-12-29T15:30:14;20.20;45.00
62809;DHT22;48848;39.002;-94.584;2022-12-29T15:32:42;20.20;45.20
62809;DHT22;48848;39.002;-94.584;2022-12-29T15:37:52;20.20;46.30
62809;DHT22;48848;39.002;-94.584;2022-12-29T15:40:28;20.10;45.60
62809;DHT22;48848;39.002;-94.584;2022-12-29T15:45:20;20.10;45.60
62809;DHT22;48848;39.002;-94.584;2022-12-29T15:47:46;20.10;45.90
62809;DHT22;48848;39.002;-94.584;2022-12-29T15:52:40;20.10;45.50
62809;DHT22;48848;39.002;-94.584;2022-12-29T15:55:06;20.00;45.80
62809;DHT22;48848;39.002;-94.584;2022-12-29T15:57:43;20.00;46.00
62809;DHT22;48848;39.002;-94.584;2022-12-29T16:00:26;20.00;45.90
62809;DHT22;48848;39.002;-94.584;2022-12-29T16:02:52;20.00;45.80
62809;DHT22;48848;39.002;-94.584;2022-12-29T16:05:19;19.90;45.70
62809;DHT22;48848;39.002;-94.584;2022-12-29T16:07:52;19.90;45.60
62809;DHT22;48848;39.002;-94.584;2022-12-29T16:10:22;19.90;45.60
62809;DHT22;48848;39.002;-94.584;2022-12-29T16:12:50;20.00;45.70
62809;DHT22;48848;39.002;-94.584;2022-12-29T16:15:16;19.90;45.40
62809;DHT22;48848;39.002;-94.584;2022-12-29T16:17:45;19.90;45.30
62809;DHT22;48848;39.002;-94.584;2022-12-29T16:20:22;20.00;45.50
62809;DHT22;48848;39.002;-94.584;2022-12-29T16:22:50;19.90;45.30
62809;DHT22;48848;39.002;-94.584;2022-12-29T16:25:31;20.00;45.30
62809;DHT22;48848;39.002;-94.584;2022-12-29T16:27:59;20.00;45.30
62809;DHT22;48848;39.002;-94.584;2022-12-29T16:30:30;20.00;45.20
62809;DHT22;48848;39.002;-94.584;2022-12-29T16:32:57;20.00;45.20
62809;DHT22;48848;39.002;-94.584;2022-12-29T16:35:37;20.00;45.20
62809;DHT22;48848;39.002;-94.584;2022-12-29T16:38:11;20.00;45.30
62809;DHT22;48848;39.002;-94.584;2022-12-29T16:40:38;20.00;45.00
62809;DHT22;48848;39.002;-94.584;2022-12-29T16:43:18;19.90;45.00
62809;DHT22;48848;39.002;-94.584;2022-12-29T16:50:40;20.00;44.90
62809;DHT22;48848;39.002;-94.584;2022-12-29T16:53:15;19.90;44.90
62809;DHT22;48848;39.002;-94.584;2022-12-29T16:55:46;20.00;45.00
62809;DHT22;48848;39.002;-94.584;2022-12-29T16:58:15;19.90;44.90
62809;DHT22;48848;39.002;-94.584;2022-12-29T17:00:43;19.90;44.90
62809;DHT22;48848;39.002;-94.584;2022-12-29T17:03:10;20.00;44.90
62809;DHT22;48848;39.002;-94.584;2022-12-29T17:05:36;20.00;44.80
62809;DHT22;48848;39.002;-94.584;2022-12-29T17:08:02;19.90;44.80
62809;DHT22;48848;39.002;-94.584;2022-12-29T17:10:28;20.00;44.80
62809;DHT22;48848;39.002;-94.584;2022-12-29T17:13:13;20.00;45.00
62809;DHT22;48848;39.002;-94.584;2022-12-29T17:15:38;20.00;45.10
62809;DHT22;48848;39.002;-94.584;2022-12-29T17:18:04;20.00;45.20
62809;DHT22;48848;39.002;-94.584;2022-12-29T17:20:31;20.00;45.30
62809;DHT22;48848;39.002;-94.584;2022-12-29T17:26:00;20.00;45.30
62809;DHT22;48848;39.002;-94.584;2022-12-29T17:28:27;20.00;45.30
62809;DHT22;48848;39.002;-94.584;2022-12-29T17:30:57;20.00;45.50
62809;DHT22;48848;39.002;-94.584;2022-12-29T17:33:23;20.00;45.50
62809;DHT22;48848;39.002;-94.584;2022-12-29T17:35:49;20.00;45.30
62809;DHT22;48848;39.002;-94.584;2022-12-29T17:40:44;20.10;45.40
62809;DHT22;48848;39.002;-94.584;2022-12-29T17:43:11;20.10;45.30
62809;DHT22;48848;39.002;-94.584;2022-12-29T17:45:37;20.00;45.30
62809;DHT22;48848;39.002;-94.584;2022-12-29T17:48:04;20.00;45.20
62809;DHT22;48848;39.002;-94.584;2022-12-29T17:50:30;20.10;45.30
62809;DHT22;48848;39.002;-94.584;2022-12-29T17:53:00;20.10;45.40